sensor_id;sensor_type;location;lat;lon;timestamp;temperature;humidity
5246;DHT22;54412;51.206;6.888;2024-03-02T00:00:24;8.90;99.90
5246;DHT22;54412;51.206;6.888;2024-03-02T00:02:51;8.90;99.90
5246;DHT22;54412;51.206;6.888;2024-03-02T00:05:20;9.00;99.90
5246;DHT22;54412;51.206;6.888;2024-03-02T00:07:55;9.00;99.90
5246;DHT22;54412;51.206;6.888;2024-03-02T00:10:26;9.00;99.90
5246;DHT22;54412;51.206;6.888;2024-03-02T00:13:00;9.10;99.90
5246;DHT22;54412;51.206;6.888;2024-03-02T00:15:42;9.10;99.90
5246;DHT22;54412;51.206;6.888;2024-03-02T00:18:30;9.20;99.90
5246;DHT22;54412;51.206;6.888;2024-03-02T00:20:57;9.10;99.90
5246;DHT22;54412;51.206;6.888;2024-03-02T00:23:25;9.10;99.90
5246;DHT22;54412;51.206;6.888;2024-03-02T00:25:55;9.00;99.90
5246;DHT22;54412;51.206;6.888;2024-03-02T00:31:10;8.90;99.90
5246;DHT22;54412;51.206;6.888;2024-03-02T00:33:47;9.00;99.90
5246;DHT22;54412;51.206;6.888;2024-03-02T00:36:15;9.00;99.90
5246;DHT22;54412;51.206;6.888;2024-03-02T00:38:49;8.80;99.90
5246;DHT22;54412;51.206;6.888;2024-03-02T00:41:24;8.90;99.90
5246;DHT22;54412;51.206;6.888;2024-03-02T00:44:02;9.00;99.90
5246;DHT22;54412;51.206;6.888;2024-03-02T00:46:42;8.90;99.90
5246;DHT22;54412;51.206;6.888;2024-03-02T00:51:36;9.00;99.90
5246;DHT22;54412;51.206;6.888;2024-03-02T00:54:08;9.10;99.90
5246;DHT22;54412;51.206;6.888;2024-03-02T00:56:35;9.00;99.90
5246;DHT22;54412;51.206;6.888;2024-03-02T00:59:01;9.10;99.90
5246;DHT22;54412;51.206;6.888;2024-03-02T01:01:26;9.20;99.90
5246;DHT22;54412;51.206;6.888;2024-03-02T01:03:53;9.10;99.90
5246;DHT22;54412;51.206;6.888;2024-03-02T01:06:18;9.10;99.90
5246;DHT22;54412;51.206;6.888;2024-03-02T01:08:45;9.10;99.90
5246;DHT22;54412;51.206;6.888;2024-03-02T01:11:12;9.20;99.90
5246;DHT22;54412;51.206;6.888;2024-03-02T01:13:38;9.10;99.90
5246;DHT22;54412;51.206;6.888;2024-03-02T01:16:04;9.30;99.90
5246;DHT22;54412;51.206;6.888;2024-03-02T01:18:29;9.30;99.90
5246;DHT22;54412;51.206;6.888;2024-03-02T01:20:56;9.30;99.90
5246;DHT22;54412;51.206;6.888;2024-03-02T01:23:22;9.20;99.90
5246;DHT22;54412;51.206;6.888;2024-03-02T01:25:49;9.30;99.90
5246;DHT22;54412;51.206;6.888;2024-03-02T01:28:16;9.30;99.90
5246;DHT22;54412;51.206;6.888;2024-03-02T01:30:42;9.30;99.90
5246;DHT22;54412;51.206;6.888;2024-03-02T01:33:07;9.40;99.90
5246;DHT22;54412;51.206;6.888;2024-03-02T01:35:33;9.40;99.90
5246;DHT22;54412;51.206;6.888;2024-03-02T01:38:03;9.50;99.90
5246;DHT22;54412;51.206;6.888;2024-03-02T01:40:29;9.40;99.90
5246;DHT22;54412;51.206;6.888;2024-03-02T01:42:55;9.40;99.90
5246;DHT22;54412;51.206;6.888;2024-03-02T01:45:21;9.40;99.90
5246;DHT22;54412;51.206;6.888;2024-03-02T01:47:47;9.40;99.90
5246;DHT22;54412;51.206;6.888;2024-03-02T01:50:13;9.40;99.90
5246;DHT22;54412;51.206;6.888;2024-03-02T01:52:39;9.40;99.90
5246;DHT22;54412;51.206;6.888;2024-03-02T01:55:06;9.40;99.90
5246;DHT22;54412;51.206;6.888;2024-03-02T01:57:33;9.40;99.90
5246;DHT22;54412;51.206;6.888;2024-03-02T02:00:00;9.50;99.90
5246;DHT22;54412;51.206;6.888;2024-03-02T02:02:26;9.50;99.90
5246;DHT22;54412;51.206;6.888;2024-03-02T02:04:52;9.50;99.90
5246;DHT22;54412;51.206;6.888;2024-03-02T02:07:18;9.50;99.90
5246;DHT22;54412;51.206;6.888;2024-03-02T02:09:44;9.50;99.90
5246;DHT22;54412;51.206;6.888;2024-03-02T02:12:10;9.60;99.90
5246;DHT22;54412;51.206;6.888;2024-03-02T02:14:36;9.50;99.90
5246;DHT22;54412;51.206;6.888;2024-03-02T02:17:02;9.60;99.90
5246;DHT22;54412;51.206;6.888;2024-03-02T02:19:28;9.60;99.90
5246;DHT22;54412;51.206;6.888;2024-03-02T02:21:54;9.70;99.90
5246;DHT22;54412;51.206;6.888;2024-03-02T02:24:20;9.60;99.90
5246;DHT22;54412;51.206;6.888;2024-03-02T02:26:46;9.60;99.90
5246;DHT22;54412;51.206;6.888;2024-03-02T02:29:11;9.70;99.90
5246;DHT22;54412;51.206;6.888;2024-03-02T02:31:38;9.70;99.90
5246;DHT22;54412;51.206;6.888;2024-03-02T02:34:04;9.70;99.90
5246;DHT22;54412;51.206;6.888;2024-03-02T02:36:31;9.70;99.90
5246;DHT22;54412;51.206;6.888;2024-03-02T02:39:02;9.80;99.90
5246;DHT22;54412;51.206;6.888;2024-03-02T02:41:29;9.80;99.90
5246;DHT22;54412;51.206;6.888;2024-03-02T02:43:56;9.90;99.90
5246;DHT22;54412;51.206;6.888;2024-03-02T02:46:22;9.90;99.90
5246;DHT22;54412;51.206;6.888;2024-03-02T02:48:47;9.80;99.90
5246;DHT22;54412;51.206;6.888;2024-03-02T02:51:13;9.90;99.90
5246;DHT22;54412;51.206;6.888;2024-03-02T02:53:39;9.90;99.90
5246;DHT22;54412;51.206;6.888;2024-03-02T02:56:06;9.90;99.90
5246;DHT22;54412;51.206;6.888;2024-03-02T02:58:32;9.90;99.90
5246;DHT22;54412;51.206;6.888;2024-03-02T03:00:58;9.90;99.90
5246;DHT22;54412;51.206;6.888;2024-03-02T03:03:23;9.90;99.90
5246;DHT22;54412;51.206;6.888;2024-03-02T03:05:49;9.90;99.90
5246;DHT22;54412;51.206;6.888;2024-03-02T03:08:15;9.90;99.90
5246;DHT22;54412;51.206;6.888;2024-03-02T03:10:41;9.90;99.90
5246;DHT22;54412;51.206;6.888;2024-03-02T03:13:07;9.80;99.90
5246;DHT22;54412;51.206;6.888;2024-03-02T03:15:36;9.90;99.90
5246;DHT22;54412;51.206;6.888;2024-03-02T03:18:04;9.80;99.90
5246;DHT22;54412;51.206;6.888;2024-03-02T03:20:30;9.80;99.90
5246;DHT22;54412;51.206;6.888;2024-03-02T03:22:59;9.90;99.90
5246;DHT22;54412;51.206;6.888;2024-03-02T03:25:25;9.90;99.90
5246;DHT22;54412;51.206;6.888;2024-03-02T03:27:51;9.80;99.90
5246;DHT22;54412;51.206;6.888;2024-03-02T03:30:19;9.90;99.90
5246;DHT22;54412;51.206;6.888;2024-03-02T03:32:45;9.90;99.90
5246;DHT22;54412;51.206;6.888;2024-03-02T03:35:13;9.90;99.90
5246;DHT22;54412;51.206;6.888;2024-03-02T03:37:40;9.90;99.90
5246;DHT22;54412;51.206;6.888;2024-03-02T03:40:06;10.00;99.90
5246;DHT22;54412;51.206;6.888;2024-03-02T03:42:38;9.90;99.90
5246;DHT22;54412;51.206;6.888;2024-03-02T03:45:07;9.90;99.90
5246;DHT22;54412;51.206;6.888;2024-03-02T03:47:33;9.90;99.90
5246;DHT22;54412;51.206;6.888;2024-03-02T03:49:59;9.90;99.90
5246;DHT22;54412;51.206;6.888;2024-03-02T03:52:25;10.00;99.90
5246;DHT22;54412;51.206;6.888;2024-03-02T03:54:50;9.90;99.90
5246;DHT22;54412;51.206;6.888;2024-03-02T03:57:16;9.80;99.90
5246;DHT22;54412;51.206;6.888;2024-03-02T03:59:42;9.80;99.90
5246;DHT22;54412;51.206;6.888;2024-03-02T04:02:09;9.80;99.90
5246;DHT22;54412;51.206;6.888;2024-03-02T04:04:35;9.70;99.90
5246;DHT22;54412;51.206;6.888;2024-03-02T04:07:01;9.70;99.90
5246;DHT22;54412;51.206;6.888;2024-03-02T04:09:27;9.70;99.90
5246;DHT22;54412;51.206;6.888;2024-03-02T04:11:53;9.60;99.90
5246;DHT22;54412;51.206;6.888;2024-03-02T04:14:19;9.60;99.90
5246;DHT22;54412;51.206;6.888;2024-03-02T04:16:45;9.60;99.90
5246;DHT22;54412;51.206;6.888;2024-03-02T04:19:10;9.50;99.90
5246;DHT22;54412;51.206;6.888;2024-03-02T04:21:36;9.60;99.90
5246;DHT22;54412;51.206;6.888;2024-03-02T04:24:02;9.70;99.90
5246;DHT22;54412;51.206;6.888;2024-03-02T04:26:28;9.50;99.90
5246;DHT22;54412;51.206;6.888;2024-03-02T04:28:54;9.60;99.90
5246;DHT22;54412;51.206;6.888;2024-03-02T04:31:20;9.40;99.90
5246;DHT22;54412;51.206;6.888;2024-03-02T04:33:47;9.50;99.90
5246;DHT22;54412;51.206;6.888;2024-03-02T04:36:12;9.50;99.90
5246;DHT22;54412;51.206;6.888;2024-03-02T04:38:38;9.30;99.90
5246;DHT22;54412;51.206;6.888;2024-03-02T04:41:04;9.30;99.90
5246;DHT22;54412;51.206;6.888;2024-03-02T04:43:34;9.20;99.90
5246;DHT22;54412;51.206;6.888;2024-03-02T04:46:00;9.30;99.90
5246;DHT22;54412;51.206;6.888;2024-03-02T04:48:26;9.30;99.90
5246;DHT22;54412;51.206;6.888;2024-03-02T04:50:52;9.20;99.90
5246;DHT22;54412;51.206;6.888;2024-03-02T04:53:18;9.20;99.90
5246;DHT22;54412;51.206;6.888;2024-03-02T04:55:44;9.10;99.90
5246;DHT22;54412;51.206;6.888;2024-03-02T04:58:10;9.20;99.90
5246;DHT22;54412;51.206;6.888;2024-03-02T05:00:35;9.20;99.90
5246;DHT22;54412;51.206;6.888;2024-03-02T05:03:02;9.20;99.90
5246;DHT22;54412;51.206;6.888;2024-03-02T05:05:28;9.10;99.90
5246;DHT22;54412;51.206;6.888;2024-03-02T05:07:53;9.00;99.90
5246;DHT22;54412;51.206;6.888;2024-03-02T05:10:19;9.10;99.90
5246;DHT22;54412;51.206;6.888;2024-03-02T05:12:45;9.20;99.90
5246;DHT22;54412;51.206;6.888;2024-03-02T05:15:12;9.20;99.90
5246;DHT22;54412;51.206;6.888;2024-03-02T05:17:40;9.00;99.90
5246;DHT22;54412;51.206;6.888;2024-03-02T05:20:10;9.10;99.90
5246;DHT22;54412;51.206;6.888;2024-03-02T05:22:36;8.90;99.90
5246;DHT22;54412;51.206;6.888;2024-03-02T05:25:03;8.80;99.90
5246;DHT22;54412;51.206;6.888;2024-03-02T05:27:30;8.90;99.90
5246;DHT22;54412;51.206;6.888;2024-03-02T05:29:56;8.90;99.90
5246;DHT22;54412;51.206;6.888;2024-03-02T05:32:23;8.80;99.90
5246;DHT22;54412;51.206;6.888;2024-03-02T05:34:49;8.80;99.90
5246;DHT22;54412;51.206;6.888;2024-03-02T05:37:16;8.70;99.90
5246;DHT22;54412;51.206;6.888;2024-03-02T05:39:42;8.70;99.90
5246;DHT22;54412;51.206;6.888;2024-03-02T05:42:09;8.80;99.90
5246;DHT22;54412;51.206;6.888;2024-03-02T05:44:38;8.80;99.90
5246;DHT22;54412;51.206;6.888;2024-03-02T05:47:04;8.80;99.90
5246;DHT22;54412;51.206;6.888;2024-03-02T05:49:30;8.80;99.90
5246;DHT22;54412;51.206;6.888;2024-03-02T05:51:56;8.80;99.90
5246;DHT22;54412;51.206;6.888;2024-03-02T05:54:22;9.00;99.90
5246;DHT22;54412;51.206;6.888;2024-03-02T05:56:47;9.00;99.90
5246;DHT22;54412;51.206;6.888;2024-03-02T05:59:13;9.10;99.90
5246;DHT22;54412;51.206;6.888;2024-03-02T06:01:40;9.00;99.90
5246;DHT22;54412;51.206;6.888;2024-03-02T06:04:06;9.20;99.90
5246;DHT22;54412;51.206;6.888;2024-03-02T06:06:33;9.10;99.90
5246;DHT22;54412;51.206;6.888;2024-03-02T06:09:00;9.00;99.90
5246;DHT22;54412;51.206;6.888;2024-03-02T06:11:28;9.00;99.90
5246;DHT22;54412;51.206;6.888;2024-03-02T06:13:53;9.10;99.90
5246;DHT22;54412;51.206;6.888;2024-03-02T06:16:19;9.10;99.90
5246;DHT22;54412;51.206;6.888;2024-03-02T06:18:45;9.00;99.90
5246;DHT22;54412;51.206;6.888;2024-03-02T06:21:10;9.10;99.90
5246;DHT22;54412;51.206;6.888;2024-03-02T06:23:36;9.00;99.90
5246;DHT22;54412;51.206;6.888;2024-03-02T06:26:02;9.00;99.90
5246;DHT22;54412;51.206;6.888;2024-03-02T06:28:28;9.10;99.90
5246;DHT22;54412;51.206;6.888;2024-03-02T06:30:54;8.90;99.90
5246;DHT22;54412;51.206;6.888;2024-03-02T06:33:19;9.00;99.90
5246;DHT22;54412;51.206;6.888;2024-03-02T06:35:45;9.20;99.90
5246;DHT22;54412;51.206;6.888;2024-03-02T06:38:11;9.30;99.90
5246;DHT22;54412;51.206;6.888;2024-03-02T06:40:36;9.00;99.90
5246;DHT22;54412;51.206;6.888;2024-03-02T06:43:04;9.00;99.90
5246;DHT22;54412;51.206;6.888;2024-03-02T06:45:30;8.80;99.90
5246;DHT22;54412;51.206;6.888;2024-03-02T06:47:56;8.80;99.90
5246;DHT22;54412;51.206;6.888;2024-03-02T06:50:22;8.70;99.90
5246;DHT22;54412;51.206;6.888;2024-03-02T06:52:47;8.80;99.90
5246;DHT22;54412;51.206;6.888;2024-03-02T06:55:13;8.80;99.90
5246;DHT22;54412;51.206;6.888;2024-03-02T06:57:39;8.80;99.90
5246;DHT22;54412;51.206;6.888;2024-03-02T07:00:05;8.70;99.90
5246;DHT22;54412;51.206;6.888;2024-03-02T07:02:34;8.70;99.90
5246;DHT22;54412;51.206;6.888;2024-03-02T07:05:01;8.70;99.90
5246;DHT22;54412;51.206;6.888;2024-03-02T07:07:28;8.80;99.90
5246;DHT22;54412;51.206;6.888;2024-03-02T07:09:53;8.80;99.90
5246;DHT22;54412;51.206;6.888;2024-03-02T07:12:19;8.90;99.90
5246;DHT22;54412;51.206;6.888;2024-03-02T07:14:44;8.90;99.90
5246;DHT22;54412;51.206;6.888;2024-03-02T07:17:33;8.90;99.90
5246;DHT22;54412;51.206;6.888;2024-03-02T07:19:59;9.00;99.90
5246;DHT22;54412;51.206;6.888;2024-03-02T07:22:25;9.00;99.90
5246;DHT22;54412;51.206;6.888;2024-03-02T07:24:51;9.00;99.90
5246;DHT22;54412;51.206;6.888;2024-03-02T07:27:17;9.20;99.90
5246;DHT22;54412;51.206;6.888;2024-03-02T07:29:43;9.20;99.90
5246;DHT22;54412;51.206;6.888;2024-03-02T07:32:10;9.20;99.90
5246;DHT22;54412;51.206;6.888;2024-03-02T07:34:36;9.30;99.90
5246;DHT22;54412;51.206;6.888;2024-03-02T07:37:03;9.20;99.90
5246;DHT22;54412;51.206;6.888;2024-03-02T07:39:29;9.20;99.90
5246;DHT22;54412;51.206;6.888;2024-03-02T07:41:55;9.40;99.90
5246;DHT22;54412;51.206;6.888;2024-03-02T07:44:21;9.50;99.90
5246;DHT22;54412;51.206;6.888;2024-03-02T07:46:48;9.50;99.90
5246;DHT22;54412;51.206;6.888;2024-03-02T07:49:18;9.40;99.90
5246;DHT22;54412;51.206;6.888;2024-03-02T07:51:44;9.40;99.90
5246;DHT22;54412;51.206;6.888;2024-03-02T07:54:10;9.50;99.90
5246;DHT22;54412;51.206;6.888;2024-03-02T07:56:36;9.60;99.90
5246;DHT22;54412;51.206;6.888;2024-03-02T07:59:03;9.80;99.90
5246;DHT22;54412;51.206;6.888;2024-03-02T08:01:33;10.10;99.90
5246;DHT22;54412;51.206;6.888;2024-03-02T08:04:00;10.30;99.90
5246;DHT22;54412;51.206;6.888;2024-03-02T08:06:27;10.60;99.90
5246;DHT22;54412;51.206;6.888;2024-03-02T08:08:57;10.60;99.90
5246;DHT22;54412;51.206;6.888;2024-03-02T08:11:24;10.60;99.90
5246;DHT22;54412;51.206;6.888;2024-03-02T08:13:50;10.60;99.90
5246;DHT22;54412;51.206;6.888;2024-03-02T08:16:17;10.70;99.90
5246;DHT22;54412;51.206;6.888;2024-03-02T08:18:47;10.90;99.90
5246;DHT22;54412;51.206;6.888;2024-03-02T08:21:13;10.90;99.90
5246;DHT22;54412;51.206;6.888;2024-03-02T08:23:40;10.90;99.90
5246;DHT22;54412;51.206;6.888;2024-03-02T08:26:07;11.00;99.90
5246;DHT22;54412;51.206;6.888;2024-03-02T08:28:36;11.10;99.90
5246;DHT22;54412;51.206;6.888;2024-03-02T08:31:08;11.20;99.90
5246;DHT22;54412;51.206;6.888;2024-03-02T08:33:35;11.50;99.90
5246;DHT22;54412;51.206;6.888;2024-03-02T08:36:00;11.80;99.90
5246;DHT22;54412;51.206;6.888;2024-03-02T08:38:27;11.90;99.90
5246;DHT22;54412;51.206;6.888;2024-03-02T08:40:53;11.70;99.90
5246;DHT22;54412;51.206;6.888;2024-03-02T08:43:19;11.80;99.90
5246;DHT22;54412;51.206;6.888;2024-03-02T08:45:45;11.90;99.90
5246;DHT22;54412;51.206;6.888;2024-03-02T08:48:12;11.80;99.90
5246;DHT22;54412;51.206;6.888;2024-03-02T08:50:38;11.60;99.90
5246;DHT22;54412;51.206;6.888;2024-03-02T08:53:04;11.50;99.90
5246;DHT22;54412;51.206;6.888;2024-03-02T08:55:30;11.60;99.90
5246;DHT22;54412;51.206;6.888;2024-03-02T08:57:56;11.60;99.90
5246;DHT22;54412;51.206;6.888;2024-03-02T09:00:22;11.80;99.90
5246;DHT22;54412;51.206;6.888;2024-03-02T09:02:48;11.90;99.90
5246;DHT22;54412;51.206;6.888;2024-03-02T09:05:14;11.90;99.90
5246;DHT22;54412;51.206;6.888;2024-03-02T09:07:40;11.80;99.90
5246;DHT22;54412;51.206;6.888;2024-03-02T09:10:06;12.10;99.90
5246;DHT22;54412;51.206;6.888;2024-03-02T09:12:33;12.50;99.90
5246;DHT22;54412;51.206;6.888;2024-03-02T09:15:00;12.80;99.90
5246;DHT22;54412;51.206;6.888;2024-03-02T09:17:28;12.80;99.90
5246;DHT22;54412;51.206;6.888;2024-03-02T09:19:54;12.70;99.90
5246;DHT22;54412;51.206;6.888;2024-03-02T09:22:20;12.80;99.90
5246;DHT22;54412;51.206;6.888;2024-03-02T09:24:45;12.70;99.90
5246;DHT22;54412;51.206;6.888;2024-03-02T09:27:11;13.00;99.90
5246;DHT22;54412;51.206;6.888;2024-03-02T09:29:37;13.00;99.90
5246;DHT22;54412;51.206;6.888;2024-03-02T09:32:04;12.70;99.90
5246;DHT22;54412;51.206;6.888;2024-03-02T09:34:31;13.00;99.90
5246;DHT22;54412;51.206;6.888;2024-03-02T09:36:57;13.20;99.90
5246;DHT22;54412;51.206;6.888;2024-03-02T09:39:23;13.50;99.90
5246;DHT22;54412;51.206;6.888;2024-03-02T09:41:51;13.70;99.90
5246;DHT22;54412;51.206;6.888;2024-03-02T09:44:16;13.80;99.90
5246;DHT22;54412;51.206;6.888;2024-03-02T09:46:42;14.00;99.90
5246;DHT22;54412;51.206;6.888;2024-03-02T09:49:12;14.10;99.90
5246;DHT22;54412;51.206;6.888;2024-03-02T09:51:39;14.20;99.90
5246;DHT22;54412;51.206;6.888;2024-03-02T09:54:07;14.10;99.90
5246;DHT22;54412;51.206;6.888;2024-03-02T09:56:33;14.00;99.90
5246;DHT22;54412;51.206;6.888;2024-03-02T09:58:59;13.50;99.90
5246;DHT22;54412;51.206;6.888;2024-03-02T10:01:25;13.20;99.90
5246;DHT22;54412;51.206;6.888;2024-03-02T10:03:51;13.20;99.90
5246;DHT22;54412;51.206;6.888;2024-03-02T10:06:28;13.10;99.90
5246;DHT22;54412;51.206;6.888;2024-03-02T10:08:55;13.20;99.90
5246;DHT22;54412;51.206;6.888;2024-03-02T10:11:29;13.60;99.90
5246;DHT22;54412;51.206;6.888;2024-03-02T10:14:12;14.10;99.90
5246;DHT22;54412;51.206;6.888;2024-03-02T10:16:43;14.00;99.90
5246;DHT22;54412;51.206;6.888;2024-03-02T10:21:54;13.80;99.90
5246;DHT22;54412;51.206;6.888;2024-03-02T10:24:22;14.00;99.90
5246;DHT22;54412;51.206;6.888;2024-03-02T10:26:49;14.00;99.90
5246;DHT22;54412;51.206;6.888;2024-03-02T10:29:15;14.10;99.90
5246;DHT22;54412;51.206;6.888;2024-03-02T10:31:43;14.30;99.90
5246;DHT22;54412;51.206;6.888;2024-03-02T10:34:11;14.60;99.90
5246;DHT22;54412;51.206;6.888;2024-03-02T10:36:41;14.60;99.90
5246;DHT22;54412;51.206;6.888;2024-03-02T10:39:08;14.70;99.90
5246;DHT22;54412;51.206;6.888;2024-03-02T10:41:36;14.80;99.90
5246;DHT22;54412;51.206;6.888;2024-03-02T10:44:04;14.70;99.90
5246;DHT22;54412;51.206;6.888;2024-03-02T10:46:32;14.90;99.90
5246;DHT22;54412;51.206;6.888;2024-03-02T10:49:00;15.10;99.90
5246;DHT22;54412;51.206;6.888;2024-03-02T10:51:29;14.80;99.90
5246;DHT22;54412;51.206;6.888;2024-03-02T10:53:59;15.00;99.90
5246;DHT22;54412;51.206;6.888;2024-03-02T10:56:43;14.90;99.90
5246;DHT22;54412;51.206;6.888;2024-03-02T10:59:17;14.80;99.90
5246;DHT22;54412;51.206;6.888;2024-03-02T11:01:55;14.60;99.90
5246;DHT22;54412;51.206;6.888;2024-03-02T11:04:27;14.50;99.90
5246;DHT22;54412;51.206;6.888;2024-03-02T11:07:04;14.70;99.90
5246;DHT22;54412;51.206;6.888;2024-03-02T11:09:33;14.60;99.90
5246;DHT22;54412;51.206;6.888;2024-03-02T11:12:12;14.70;99.90
5246;DHT22;54412;51.206;6.888;2024-03-02T11:14:42;14.80;99.90
5246;DHT22;54412;51.206;6.888;2024-03-02T11:17:12;14.70;99.90
5246;DHT22;54412;51.206;6.888;2024-03-02T11:19:43;14.80;99.90
5246;DHT22;54412;51.206;6.888;2024-03-02T11:22:11;15.30;99.90
5246;DHT22;54412;51.206;6.888;2024-03-02T11:24:37;15.20;99.90
5246;DHT22;54412;51.206;6.888;2024-03-02T11:27:04;15.10;99.90
5246;DHT22;54412;51.206;6.888;2024-03-02T11:32:02;15.40;99.90
5246;DHT22;54412;51.206;6.888;2024-03-02T11:34:33;15.20;99.90
5246;DHT22;54412;51.206;6.888;2024-03-02T11:37:04;15.20;99.90
5246;DHT22;54412;51.206;6.888;2024-03-02T11:39:31;15.50;99.90
5246;DHT22;54412;51.206;6.888;2024-03-02T11:41:58;15.80;99.90
5246;DHT22;54412;51.206;6.888;2024-03-02T11:44:27;15.70;99.90
5246;DHT22;54412;51.206;6.888;2024-03-02T11:47:06;15.90;99.90
5246;DHT22;54412;51.206;6.888;2024-03-02T11:49:50;15.90;99.90
5246;DHT22;54412;51.206;6.888;2024-03-02T11:52:20;15.60;99.90
5246;DHT22;54412;51.206;6.888;2024-03-02T11:54:48;15.50;99.90
5246;DHT22;54412;51.206;6.888;2024-03-02T11:57:18;15.70;99.90
5246;DHT22;54412;51.206;6.888;2024-03-02T11:59:47;15.80;99.90
5246;DHT22;54412;51.206;6.888;2024-03-02T12:02:19;15.70;99.90
5246;DHT22;54412;51.206;6.888;2024-03-02T12:04:47;15.90;99.90
5246;DHT22;54412;51.206;6.888;2024-03-02T12:07:22;16.10;99.90
5246;DHT22;54412;51.206;6.888;2024-03-02T12:09:49;15.90;99.90
5246;DHT22;54412;51.206;6.888;2024-03-02T12:12:24;15.80;99.90
5246;DHT22;54412;51.206;6.888;2024-03-02T12:14:52;15.40;99.90
5246;DHT22;54412;51.206;6.888;2024-03-02T12:17:21;15.00;99.90
5246;DHT22;54412;51.206;6.888;2024-03-02T12:19:47;14.70;99.90
5246;DHT22;54412;51.206;6.888;2024-03-02T12:22:13;14.90;99.90
5246;DHT22;54412;51.206;6.888;2024-03-02T12:24:41;15.00;99.90
5246;DHT22;54412;51.206;6.888;2024-03-02T12:27:07;14.80;99.90
5246;DHT22;54412;51.206;6.888;2024-03-02T12:29:34;14.90;99.90
5246;DHT22;54412;51.206;6.888;2024-03-02T12:32:00;14.90;99.90
5246;DHT22;54412;51.206;6.888;2024-03-02T12:34:27;14.60;99.90
5246;DHT22;54412;51.206;6.888;2024-03-02T12:36:53;14.40;99.90
5246;DHT22;54412;51.206;6.888;2024-03-02T12:39:19;14.30;99.90
5246;DHT22;54412;51.206;6.888;2024-03-02T12:41:49;14.30;99.90
5246;DHT22;54412;51.206;6.888;2024-03-02T12:44:16;14.30;99.90
5246;DHT22;54412;51.206;6.888;2024-03-02T12:46:43;14.20;99.90
5246;DHT22;54412;51.206;6.888;2024-03-02T12:49:11;14.20;99.90
5246;DHT22;54412;51.206;6.888;2024-03-02T12:51:40;14.10;99.90
5246;DHT22;54412;51.206;6.888;2024-03-02T12:54:10;14.10;99.90
5246;DHT22;54412;51.206;6.888;2024-03-02T12:56:41;14.10;99.90
5246;DHT22;54412;51.206;6.888;2024-03-02T12:59:21;14.00;99.90
5246;DHT22;54412;51.206;6.888;2024-03-02T13:01:55;14.00;99.90
5246;DHT22;54412;51.206;6.888;2024-03-02T13:04:24;13.90;99.90
5246;DHT22;54412;51.206;6.888;2024-03-02T13:06:51;13.90;99.90
5246;DHT22;54412;51.206;6.888;2024-03-02T13:09:18;13.90;99.90
5246;DHT22;54412;51.206;6.888;2024-03-02T13:11:44;13.90;99.90
5246;DHT22;54412;51.206;6.888;2024-03-02T13:14:11;13.80;99.90
5246;DHT22;54412;51.206;6.888;2024-03-02T13:16:40;13.80;99.90
5246;DHT22;54412;51.206;6.888;2024-03-02T13:19:10;13.70;99.90
5246;DHT22;54412;51.206;6.888;2024-03-02T13:21:37;13.90;99.90
5246;DHT22;54412;51.206;6.888;2024-03-02T13:24:03;13.70;99.90
5246;DHT22;54412;51.206;6.888;2024-03-02T13:26:30;13.70;99.90
5246;DHT22;54412;51.206;6.888;2024-03-02T13:28:56;13.80;99.90
5246;DHT22;54412;51.206;6.888;2024-03-02T13:31:21;13.90;99.90
5246;DHT22;54412;51.206;6.888;2024-03-02T13:33:47;14.00;99.90
5246;DHT22;54412;51.206;6.888;2024-03-02T13:36:13;14.10;99.90
5246;DHT22;54412;51.206;6.888;2024-03-02T13:38:39;14.20;99.90
5246;DHT22;54412;51.206;6.888;2024-03-02T13:41:05;14.20;99.90
5246;DHT22;54412;51.206;6.888;2024-03-02T13:43:31;14.40;99.90
5246;DHT22;54412;51.206;6.888;2024-03-02T13:45:58;14.30;99.90
5246;DHT22;54412;51.206;6.888;2024-03-02T13:48:24;14.30;99.90
5246;DHT22;54412;51.206;6.888;2024-03-02T13:50:51;14.10;99.90
5246;DHT22;54412;51.206;6.888;2024-03-02T13:53:18;14.20;99.90
5246;DHT22;54412;51.206;6.888;2024-03-02T13:55:45;14.20;99.90
5246;DHT22;54412;51.206;6.888;2024-03-02T13:58:11;14.20;99.90
5246;DHT22;54412;51.206;6.888;2024-03-02T14:00:38;14.20;99.90
5246;DHT22;54412;51.206;6.888;2024-03-02T14:03:05;14.20;99.90
5246;DHT22;54412;51.206;6.888;2024-03-02T14:05:31;14.20;99.90
5246;DHT22;54412;51.206;6.888;2024-03-02T14:07:58;14.20;99.90
5246;DHT22;54412;51.206;6.888;2024-03-02T14:10:26;14.20;99.90
5246;DHT22;54412;51.206;6.888;2024-03-02T14:12:52;14.20;99.90
5246;DHT22;54412;51.206;6.888;2024-03-02T14:15:18;14.30;99.90
5246;DHT22;54412;51.206;6.888;2024-03-02T14:17:44;14.40;99.90
5246;DHT22;54412;51.206;6.888;2024-03-02T14:20:10;14.50;99.90
5246;DHT22;54412;51.206;6.888;2024-03-02T14:22:37;14.60;99.90
5246;DHT22;54412;51.206;6.888;2024-03-02T14:25:03;14.70;99.90
5246;DHT22;54412;51.206;6.888;2024-03-02T14:27:29;14.70;99.90
5246;DHT22;54412;51.206;6.888;2024-03-02T14:29:56;14.60;99.90
5246;DHT22;54412;51.206;6.888;2024-03-02T14:32:22;14.60;99.90
5246;DHT22;54412;51.206;6.888;2024-03-02T14:34:48;14.50;99.90
5246;DHT22;54412;51.206;6.888;2024-03-02T14:37:15;14.40;99.90
5246;DHT22;54412;51.206;6.888;2024-03-02T14:39:41;14.50;99.90
5246;DHT22;54412;51.206;6.888;2024-03-02T14:42:06;14.50;99.90
5246;DHT22;54412;51.206;6.888;2024-03-02T14:44:33;14.50;99.90
5246;DHT22;54412;51.206;6.888;2024-03-02T14:47:01;14.30;99.90
5246;DHT22;54412;51.206;6.888;2024-03-02T14:49:28;14.30;99.90
5246;DHT22;54412;51.206;6.888;2024-03-02T14:51:54;14.30;99.90
5246;DHT22;54412;51.206;6.888;2024-03-02T14:54:20;14.30;99.90
5246;DHT22;54412;51.206;6.888;2024-03-02T14:56:46;14.20;99.90
5246;DHT22;54412;51.206;6.888;2024-03-02T14:59:12;14.30;99.90
5246;DHT22;54412;51.206;6.888;2024-03-02T15:01:37;14.30;99.90
5246;DHT22;54412;51.206;6.888;2024-03-02T15:04:04;14.30;99.90
5246;DHT22;54412;51.206;6.888;2024-03-02T15:06:30;14.30;99.90
5246;DHT22;54412;51.206;6.888;2024-03-02T15:08:56;14.30;99.90
5246;DHT22;54412;51.206;6.888;2024-03-02T15:11:21;14.30;99.90
5246;DHT22;54412;51.206;6.888;2024-03-02T15:13:50;14.30;99.90
5246;DHT22;54412;51.206;6.888;2024-03-02T15:16:16;14.30;99.90
5246;DHT22;54412;51.206;6.888;2024-03-02T15:18:42;14.20;99.90
5246;DHT22;54412;51.206;6.888;2024-03-02T15:21:07;14.10;99.90
5246;DHT22;54412;51.206;6.888;2024-03-02T15:23:33;14.20;99.90
5246;DHT22;54412;51.206;6.888;2024-03-02T15:25:59;14.20;99.90
5246;DHT22;54412;51.206;6.888;2024-03-02T15:28:25;14.30;99.90
5246;DHT22;54412;51.206;6.888;2024-03-02T15:30:51;14.30;99.90
5246;DHT22;54412;51.206;6.888;2024-03-02T15:33:17;14.20;99.90
5246;DHT22;54412;51.206;6.888;2024-03-02T15:35:43;14.10;99.90
5246;DHT22;54412;51.206;6.888;2024-03-02T15:38:09;14.10;99.90
5246;DHT22;54412;51.206;6.888;2024-03-02T15:40:37;14.00;99.90
5246;DHT22;54412;51.206;6.888;2024-03-02T15:43:03;14.10;99.90
5246;DHT22;54412;51.206;6.888;2024-03-02T15:45:28;14.00;99.90
5246;DHT22;54412;51.206;6.888;2024-03-02T15:47:59;14.00;99.90
5246;DHT22;54412;51.206;6.888;2024-03-02T15:50:26;14.00;99.90
5246;DHT22;54412;51.206;6.888;2024-03-02T15:52:52;14.00;99.90
5246;DHT22;54412;51.206;6.888;2024-03-02T15:55:18;14.00;99.90
5246;DHT22;54412;51.206;6.888;2024-03-02T15:57:43;14.00;99.90
5246;DHT22;54412;51.206;6.888;2024-03-02T16:00:09;14.00;99.90
5246;DHT22;54412;51.206;6.888;2024-03-02T16:02:35;14.00;99.90
5246;DHT22;54412;51.206;6.888;2024-03-02T16:05:01;14.00;99.90